Time;durP1;ratioP1;P1;durP2;ratioP2;P2;SDS_P1;SDS_P2;PMS_P1;PMS_P2;Temp;Humidity;BMP_temperature;BMP_pressure;BME280_temperature;BME280_humidity;BME280_pressure;Samples;Min_cycle;Max_cycle;Signal;HPM_P1;HPM_P2
2023/07/04 00:01:36;;;;;;;69.07;24.27;;;;;;;;;;6215054;28;20058;-58
2023/07/04 00:04:39;;;;;;;67.27;23.67;;;;;;;;;;6217235;28;20543;-59
2023/07/04 00:07:41;;;;;;;63.47;23.90;;;;;;;;;;6215088;28;20492;-59
2023/07/04 00:10:43;;;;;;;64.50;24.65;;;;;;;;;;6216690;28;20042;-57
2023/07/04 00:13:44;;;;;;;66.32;25.70;;;;;;;;;;6213222;28;20048;-59
2023/07/04 00:16:44;;;;;;;70.60;24.07;;;;;;;;;;6215006;28;20046;-58
2023/07/04 00:19:48;;;;;;;62.30;24.60;;;;;;;;;;6212320;28;20582;-59
2023/07/04 00:22:48;;;;;;;68.97;24.52;;;;;;;;;;6213459;28;20053;-58
2023/07/04 00:25:49;;;;;;;57.10;23.10;;;;;;;;;;6213601;28;20080;-59
2023/07/04 00:28:50;;;;;;;61.93;24.00;;;;;;;;;;6218533;28;20045;-59
2023/07/04 00:31:50;;;;;;;66.17;24.03;;;;;;;;;;6218351;28;20092;-59
2023/07/04 00:34:51;;;;;;;63.67;23.37;;;;;;;;;;6219609;28;20042;-58
2023/07/04 00:37:52;;;;;;;61.33;23.73;;;;;;;;;;6216516;28;20038;-59
2023/07/04 00:40:54;;;;;;;67.77;23.53;;;;;;;;;;6218617;28;20092;-58
2023/07/04 00:44:13;;;;;;;59.50;22.52;;;;;;;;;;6207402;28;20060;-59
2023/07/04 00:47:21;;;;;;;63.83;22.77;;;;;;;;;;6218269;28;20041;-59
2023/07/04 00:50:27;;;;;;;57.53;22.88;;;;;;;;;;6220220;28;20054;-59
2023/07/04 00:53:28;;;;;;;55.20;22.25;;;;;;;;;;6219870;28;20169;-59
2023/07/04 00:56:30;;;;;;;64.95;24.38;;;;;;;;;;6219803;28;20507;-58
2023/07/04 00:59:38;;;;;;;67.05;25.48;;;;;;;;;;6217613;28;20057;-59
2023/07/04 01:02:38;;;;;;;64.25;23.70;;;;;;;;;;6210905;28;20056;-58
2023/07/04 01:06:02;;;;;;;69.07;24.40;;;;;;;;;;6214160;28;20046;-59
2023/07/04 01:09:05;;;;;;;64.60;22.92;;;;;;;;;;6204730;28;20045;-59
2023/07/04 01:12:06;;;;;;;63.50;25.10;;;;;;;;;;6208582;28;20057;-59
2023/07/04 01:15:08;;;;;;;;;;;;;;;;;;6216260;28;20049;-59
2023/07/04 01:18:08;;;;;;;71.18;27.45;;;;;;;;;;6213774;28;20229;-59
2023/07/04 01:21:11;;;;;;;69.50;28.60;;;;;;;;;;6214925;28;20486;-59
2023/07/04 01:24:22;;;;;;;73.40;27.10;;;;;;;;;;6206819;28;20050;-58
2023/07/04 01:27:24;;;;;;;66.28;27.98;;;;;;;;;;6211799;28;20099;-59
2023/07/04 01:30:24;;;;;;;;;;;;;;;;;;6205945;28;20488;-58
2023/07/04 01:33:26;;;;;;;66.93;24.48;;;;;;;;;;6211209;28;20012;-60
2023/07/04 01:36:30;;;;;;;61.60;24.35;;;;;;;;;;6211756;28;20757;-59
2023/07/04 01:39:30;;;;;;;58.38;25.30;;;;;;;;;;6211693;28;20385;-59
2023/07/04 01:42:31;;;;;;;68.20;25.63;;;;;;;;;;6209903;28;20507;-59
2023/07/04 01:45:32;;;;;;;58.87;24.60;;;;;;;;;;6211283;28;20073;-59
2023/07/04 01:48:32;;;;;;;63.40;23.83;;;;;;;;;;6212381;28;20041;-59
2023/07/04 01:51:40;;;;;;;73.80;25.80;;;;;;;;;;6213151;28;20070;-57
2023/07/04 01:54:40;;;;;;;69.30;24.95;;;;;;;;;;6211897;28;20042;-59
2023/07/04 01:57:41;;;;;;;63.10;24.50;;;;;;;;;;6211516;28;20088;-59
2023/07/04 02:00:42;;;;;;;66.73;25.40;;;;;;;;;;6210343;28;20046;-58
2023/07/04 02:03:42;;;;;;;63.67;24.07;;;;;;;;;;6213034;28;20045;-60
2023/07/04 02:06:43;;;;;;;68.17;24.97;;;;;;;;;;6205430;28;20714;-59
2023/07/04 02:09:44;;;;;;;57.53;23.27;;;;;;;;;;6214681;28;20049;-59
2023/07/04 02:12:44;;;;;;;63.67;25.13;;;;;;;;;;6212794;28;20053;-59
2023/07/04 02:15:45;;;;;;;62.57;24.60;;;;;;;;;;6208988;28;20061;-58
2023/07/04 02:18:46;;;;;;;59.30;23.83;;;;;;;;;;6210897;28;20046;-58
2023/07/04 02:21:46;;;;;;;54.57;23.83;;;;;;;;;;6211854;28;20050;-59
2023/07/04 02:24:47;;;;;;;61.83;24.33;;;;;;;;;;6208085;28;20054;-59
2023/07/04 02:27:48;;;;;;;54.00;23.23;;;;;;;;;;6212423;28;20046;-59
2023/07/04 02:30:53;;;;;;;66.40;24.90;;;;;;;;;;6212087;28;20064;-59
2023/07/04 02:33:54;;;;;;;57.50;23.55;;;;;;;;;;6209393;28;20045;-58
2023/07/04 02:36:54;;;;;;;65.93;25.00;;;;;;;;;;6211422;28;20049;-59
2023/07/04 02:39:56;;;;;;;60.60;23.13;;;;;;;;;;6211858;28;20099;-59
2023/07/04 02:42:58;;;;;;;61.50;24.00;;;;;;;;;;6211494;28;20054;-59
2023/07/04 02:46:00;;;;;;;70.28;23.80;;;;;;;;;;6207771;28;20053;-59
2023/07/04 02:49:00;;;;;;;62.08;23.15;;;;;;;;;;6210036;28;20088;-59
2023/07/04 02:52:01;;;;;;;61.50;22.63;;;;;;;;;;6210822;28;20045;-59
2023/07/04 02:55:02;;;;;;;62.50;24.33;;;;;;;;;;6209780;28;20049;-59
2023/07/04 02:58:03;;;;;;;64.30;23.83;;;;;;;;;;6211101;28;20046;-59
2023/07/04 03:01:04;;;;;;;63.80;24.17;;;;;;;;;;6211105;28;20065;-59
2023/07/04 03:04:05;;;;;;;59.35;23.83;;;;;;;;;;6195713;28;20147;-59
2023/07/04 03:07:06;;;;;;;57.27;23.17;;;;;;;;;;6209127;28;20037;-59
2023/07/04 03:10:07;;;;;;;55.30;23.63;;;;;;;;;;6209150;28;20420;-59
2023/07/04 03:13:07;;;;;;;55.40;22.50;;;;;;;;;;6209048;28;20358;-59
2023/07/04 03:16:08;;;;;;;54.47;22.77;;;;;;;;;;6209124;28;20044;-59
2023/07/04 03:19:09;;;;;;;60.23;23.37;;;;;;;;;;6210651;28;20053;-58
2023/07/04 03:22:09;;;;;;;57.17;23.13;;;;;;;;;;6208645;28;20077;-59
2023/07/04 03:25:11;;;;;;;57.53;22.93;;;;;;;;;;6211378;28;20481;-59
2023/07/04 03:28:12;;;;;;;61.05;22.88;;;;;;;;;;6210500;28;20042;-59
2023/07/04 03:31:12;;;;;;;65.10;22.13;;;;;;;;;;6209141;28;20042;-58
2023/07/04 03:34:13;;;;;;;62.43;24.00;;;;;;;;;;6208688;28;20064;-58
2023/07/04 03:37:14;;;;;;;61.90;23.57;;;;;;;;;;6208249;28;20050;-59
2023/07/04 03:40:15;;;;;;;67.43;24.57;;;;;;;;;;6210572;28;20053;-60
2023/07/04 03:43:15;;;;;;;66.03;27.33;;;;;;;;;;6211225;28;20050;-59
2023/07/04 03:46:16;;;;;;;66.83;26.27;;;;;;;;;;6209515;28;20044;-58
2023/07/04 03:49:16;;;;;;;75.57;29.07;;;;;;;;;;6210237;28;20428;-59
2023/07/04 03:52:17;;;;;;;77.13;31.43;;;;;;;;;;6210570;28;20072;-60
2023/07/04 03:55:17;;;;;;;75.90;31.47;;;;;;;;;;6208541;28;20046;-59
2023/07/04 03:58:18;;;;;;;76.93;33.37;;;;;;;;;;6210129;28;20179;-58
2023/07/04 04:01:18;;;;;;;69.67;29.03;;;;;;;;;;6210254;28;20053;-59
2023/07/04 04:04:22;;;;;;;63.73;26.73;;;;;;;;;;6207806;28;20046;-59
2023/07/04 04:07:23;;;;;;;71.40;27.63;;;;;;;;;;6207601;28;20144;-58
2023/07/04 04:10:24;;;;;;;68.40;27.30;;;;;;;;;;6210131;28;20046;-59
2023/07/04 04:13:25;;;;;;;73.03;25.97;;;;;;;;;;6209083;28;20409;-59
2023/07/04 04:16:26;;;;;;;64.22;24.35;;;;;;;;;;6207754;28;20456;-58
2023/07/04 04:19:27;;;;;;;69.07;25.13;;;;;;;;;;6208975;28;20061;-59
2023/07/04 04:22:27;;;;;;;58.33;23.52;;;;;;;;;;6210151;28;20504;-59
2023/07/04 04:25:28;;;;;;;64.53;24.40;;;;;;;;;;6208485;28;20033;-60
2023/07/04 04:28:29;;;;;;;73.67;25.03;;;;;;;;;;6210791;28;20069;-59
2023/07/04 04:31:30;;;;;;;65.47;24.37;;;;;;;;;;6210488;28;20050;-59
2023/07/04 04:34:30;;;;;;;70.17;25.00;;;;;;;;;;6206663;28;20045;-59
2023/07/04 04:37:32;;;;;;;65.17;24.90;;;;;;;;;;6174771;28;20414;-59
2023/07/04 04:40:33;;;;;;;;;;;;;;;;;;6160395;28;20153;-59
2023/07/04 04:43:33;;;;;;;61.33;23.40;;;;;;;;;;6164135;28;20293;-59
2023/07/04 04:46:34;;;;;;;57.60;23.40;;;;;;;;;;6163638;28;20047;-60
2023/07/04 04:49:35;;;;;;;58.23;23.93;;;;;;;;;;6163050;28;20054;-59
2023/07/04 04:52:37;;;;;;;62.93;24.17;;;;;;;;;;6165329;28;20120;-59
2023/07/04 04:55:38;;;;;;;74.95;25.23;;;;;;;;;;6163201;28;20073;-59
2023/07/04 04:58:43;;;;;;;61.35;23.40;;;;;;;;;;6164115;28;20042;-58
2023/07/04 05:01:45;;;;;;;64.30;23.08;;;;;;;;;;6161612;28;20562;-59
2023/07/04 05:04:46;;;;;;;59.63;22.80;;;;;;;;;;6163907;28;20058;-60
2023/07/04 05:07:49;;;;;;;63.20;23.17;;;;;;;;;;6163936;28;20485;-59
2023/07/04 05:11:02;;;;;;;61.95;24.55;;;;;;;;;;6164976;28;20307;-59
2023/07/04 05:14:04;;;;;;;63.42;23.52;;;;;;;;;;6165328;28;20498;-59
2023/07/04 05:17:04;;;;;;;65.55;23.27;;;;;;;;;;6161825;28;20115;-59
2023/07/04 05:20:06;;;;;;;60.37;23.30;;;;;;;;;;6167786;28;20414;-60
2023/07/04 05:23:07;;;;;;;73.50;25.52;;;;;;;;;;6165880;28;20066;-59
2023/07/04 05:26:14;;;;;;;69.97;24.87;;;;;;;;;;6160852;28;20489;-59
2023/07/04 05:29:14;;;;;;;63.15;24.17;;;;;;;;;;6171283;28;20058;-59
2023/07/04 05:32:15;;;;;;;67.00;25.37;;;;;;;;;;6170409;28;20098;-56
2023/07/04 05:35:16;;;;;;;68.23;25.37;;;;;;;;;;6178425;28;20050;-54
2023/07/04 05:38:16;;;;;;;67.47;23.33;;;;;;;;;;6209849;28;20045;-59
2023/07/04 05:41:20;;;;;;;64.47;23.87;;;;;;;;;;6219052;28;20050;-60
2023/07/04 05:44:21;;;;;;;66.88;23.45;;;;;;;;;;6220328;28;20050;-60
2023/07/04 05:47:21;;;;;;;58.95;22.58;;;;;;;;;;6216781;28;20046;-60
2023/07/04 05:50:22;;;;;;;63.77;23.00;;;;;;;;;;6218843;28;20080;-62
2023/07/04 05:53:24;;;;;;;58.27;23.03;;;;;;;;;;6213238;28;20077;-60
2023/07/04 05:56:27;;;;;;;56.40;22.10;;;;;;;;;;6205209;28;20497;-60
2023/07/04 05:59:28;;;;;;;57.35;22.15;;;;;;;;;;6211030;28;20384;-59
2023/07/04 06:02:28;;;;;;;61.23;22.73;;;;;;;;;;6214708;28;20046;-60
2023/07/04 06:05:30;;;;;;;67.57;22.03;;;;;;;;;;6216214;28;20054;-61
2023/07/04 06:08:31;;;;;;;60.85;20.95;;;;;;;;;;6216386;28;20041;-62
2023/07/04 06:11:34;;;;;;;62.65;21.83;;;;;;;;;;6218151;28;20042;-60
2023/07/04 06:14:37;;;;;;;60.65;21.83;;;;;;;;;;6215062;28;20049;-61
2023/07/04 06:17:38;;;;;;;58.42;22.25;;;;;;;;;;6217264;28;20046;-61
2023/07/04 06:20:38;;;;;;;67.80;23.90;;;;;;;;;;6219297;28;20060;-61
2023/07/04 06:23:39;;;;;;;66.80;24.07;;;;;;;;;;6218642;28;20041;-61
2023/07/04 06:26:40;;;;;;;69.10;22.93;;;;;;;;;;6217360;28;20053;-63
2023/07/04 06:29:40;;;;;;;68.13;22.87;;;;;;;;;;6218672;28;20096;-62
2023/07/04 06:32:41;;;;;;;57.83;23.07;;;;;;;;;;6217201;28;20855;-61
2023/07/04 06:35:43;;;;;;;59.70;21.73;;;;;;;;;;6211802;28;20567;-60
2023/07/04 06:38:43;;;;;;;65.75;22.67;;;;;;;;;;6217760;28;20298;-61
2023/07/04 06:41:45;;;;;;;65.73;22.70;;;;;;;;;;6218287;28;20452;-60
2023/07/04 06:44:46;;;;;;;67.35;22.88;;;;;;;;;;6217724;28;20515;-60
2023/07/04 06:47:47;;;;;;;54.40;20.53;;;;;;;;;;6216852;28;20074;-60
2023/07/04 06:51:01;;;;;;;51.60;20.17;;;;;;;;;;6200882;28;20060;-60
2023/07/04 06:54:02;;;;;;;59.97;19.58;;;;;;;;;;6215690;28;20377;-60
2023/07/04 06:57:04;;;;;;;46.33;19.43;;;;;;;;;;6214226;28;20045;-60
2023/07/04 07:00:05;;;;;;;57.22;19.02;;;;;;;;;;6215047;28;20439;-60
2023/07/04 07:03:06;;;;;;;49.55;18.45;;;;;;;;;;6215780;28;20071;-61
2023/07/04 07:06:10;;;;;;;48.30;17.65;;;;;;;;;;6217677;28;20092;-60
2023/07/04 07:09:11;;;;;;;46.92;18.23;;;;;;;;;;6217028;28;20092;-60
2023/07/04 07:12:12;;;;;;;51.17;17.80;;;;;;;;;;6217488;28;20478;-61
2023/07/04 07:15:12;;;;;;;49.00;17.90;;;;;;;;;;6217822;28;20045;-60
2023/07/04 07:18:13;;;;;;;44.70;16.57;;;;;;;;;;6215633;28;20038;-60
2023/07/04 07:21:18;;;;;;;54.07;17.87;;;;;;;;;;6217528;28;20100;-60
2023/07/04 07:24:18;;;;;;;52.80;16.83;;;;;;;;;;6217648;28;20473;-61
2023/07/04 07:27:19;;;;;;;48.73;15.67;;;;;;;;;;6216342;28;20049;-61
2023/07/04 07:30:20;;;;;;;43.70;14.53;;;;;;;;;;6216647;28;20066;-59
2023/07/04 07:33:20;;;;;;;51.63;16.57;;;;;;;;;;6216847;28;20489;-60
2023/07/04 07:36:27;;;;;;;46.87;14.73;;;;;;;;;;6217024;28;20436;-59
2023/07/04 07:39:28;;;;;;;45.90;16.25;;;;;;;;;;6215751;28;20112;-60
2023/07/04 07:42:35;;;;;;;35.13;11.57;;;;;;;;;;6217402;28;20054;-60
2023/07/04 07:45:35;;;;;;;33.65;11.43;;;;;;;;;;6217144;28;20053;-61
2023/07/04 07:48:36;;;;;;;31.97;10.87;;;;;;;;;;6215754;28;20092;-61
2023/07/04 07:51:37;;;;;;;33.90;12.90;;;;;;;;;;6217438;28;20089;-60
2023/07/04 07:54:38;;;;;;;40.30;12.88;;;;;;;;;;6216510;28;20042;-60
2023/07/04 07:57:38;;;;;;;24.23;9.40;;;;;;;;;;6216015;28;20056;-60
2023/07/04 08:00:39;;;;;;;18.80;6.53;;;;;;;;;;6216275;28;20054;-61
2023/07/04 08:03:40;;;;;;;24.53;8.57;;;;;;;;;;6217046;28;20052;-60
2023/07/04 08:06:42;;;;;;;;;;;;;;;;;;6217827;28;20180;-60
2023/07/04 08:09:43;;;;;;;26.70;9.98;;;;;;;;;;6215296;28;19922;-60
2023/07/04 08:12:43;;;;;;;30.30;10.87;;;;;;;;;;6216497;28;20057;-60
2023/07/04 08:15:53;;;;;;;28.23;9.90;;;;;;;;;;6217104;28;20042;-61
2023/07/04 08:18:56;;;;;;;28.83;9.68;;;;;;;;;;6219214;28;20443;-60
2023/07/04 08:21:56;;;;;;;26.85;8.50;;;;;;;;;;6220939;28;20060;-60
2023/07/04 08:24:58;;;;;;;21.90;8.40;;;;;;;;;;6221619;28;20489;-61
2023/07/04 08:27:59;;;;;;;;;;;;;;;;;;6218610;28;20049;-61
2023/07/04 08:31:05;;;;;;;21.95;8.93;;;;;;;;;;6220454;28;20068;-61
2023/07/04 08:34:05;;;;;;;21.48;8.05;;;;;;;;;;6221165;28;20046;-61
2023/07/04 08:37:06;;;;;;;20.38;8.35;;;;;;;;;;6221225;28;20451;-61
2023/07/04 08:40:07;;;;;;;23.60;8.17;;;;;;;;;;6219248;28;20054;-60
2023/07/04 08:43:08;;;;;;;;;;;;;;;;;;6221750;28;20083;-64
2023/07/04 08:46:12;;;;;;;23.15;6.75;;;;;;;;;;6220083;28;19925;-60
2023/07/04 08:49:28;;;;;;;25.30;8.68;;;;;;;;;;6218741;28;20448;-64
2023/07/04 08:52:39;;;;;;;26.05;8.20;;;;;;;;;;6218979;28;20038;-62
2023/07/04 08:55:52;;;;;;;20.23;7.63;;;;;;;;;;6217961;28;20133;-61
2023/07/04 08:59:09;;;;;;;28.30;9.85;;;;;;;;;;6218533;28;20057;-61
2023/07/04 09:02:23;;;;;;;23.65;9.10;;;;;;;;;;6218221;28;20121;-61
2023/07/04 09:05:42;;;;;;;28.77;9.38;;;;;;;;;;6219426;28;20038;-61
2023/07/04 09:08:45;;;;;;;22.90;8.50;;;;;;;;;;6221301;28;20046;-60
2023/07/04 09:11:48;;;;;;;21.92;8.52;;;;;;;;;;6219964;28;20054;-60
2023/07/04 09:15:07;;;;;;;26.45;8.23;;;;;;;;;;6219255;28;20484;-60
2023/07/04 09:18:08;;;;;;;23.17;8.07;;;;;;;;;;6214392;28;20077;-61
2023/07/04 09:21:14;;;;;;;24.57;8.97;;;;;;;;;;6218409;28;20050;-61
2023/07/04 09:24:15;;;;;;;23.75;9.18;;;;;;;;;;6218737;28;20092;-61
2023/07/04 09:27:16;;;;;;;31.93;11.70;;;;;;;;;;6213623;28;20054;-60
2023/07/04 09:30:17;;;;;;;31.08;11.32;;;;;;;;;;6214268;28;20382;-61
2023/07/04 09:33:21;;;;;;;34.80;12.15;;;;;;;;;;6220274;28;20188;-60
2023/07/04 09:36:26;;;;;;;30.58;11.55;;;;;;;;;;6218280;28;20057;-60
2023/07/04 09:39:54;;;;;;;28.17;11.55;;;;;;;;;;6219717;28;20053;-60
2023/07/04 09:42:54;;;;;;;28.95;11.38;;;;;;;;;;6217023;28;20050;-60
2023/07/04 09:46:10;;;;;;;32.03;10.97;;;;;;;;;;6218766;28;20046;-61
2023/07/04 09:49:27;;;;;;;30.88;11.77;;;;;;;;;;6210623;28;21033;-61
2023/07/04 09:52:28;;;;;;;30.48;12.32;;;;;;;;;;6212724;28;20129;-61
2023/07/04 09:55:31;;;;;;;34.08;12.77;;;;;;;;;;6208813;28;20116;-60
2023/07/04 09:58:32;;;;;;;30.52;11.38;;;;;;;;;;6209879;28;20058;-61
2023/07/04 10:01:33;;;;;;;24.10;10.13;;;;;;;;;;6208055;28;20160;-61
2023/07/04 10:04:36;;;;;;;31.33;10.32;;;;;;;;;;6210135;28;20472;-60
2023/07/04 10:07:37;;;;;;;30.08;10.82;;;;;;;;;;6209876;28;20064;-60
2023/07/04 10:10:44;;;;;;;29.83;11.48;;;;;;;;;;6207365;28;20535;-60
2023/07/04 10:13:58;;;;;;;34.13;11.50;;;;;;;;;;6210547;28;20045;-60
2023/07/04 10:17:10;;;;;;;28.80;10.70;;;;;;;;;;6208908;28;20045;-61
2023/07/04 10:20:13;;;;;;;28.73;10.95;;;;;;;;;;6209413;28;20145;-61
2023/07/04 10:23:14;;;;;;;27.60;11.05;;;;;;;;;;6209192;28;20518;-61
2023/07/04 10:26:15;;;;;;;26.60;10.03;;;;;;;;;;6209531;28;20566;-60
2023/07/04 10:29:25;;;;;;;27.85;9.93;;;;;;;;;;6215306;28;20058;-61
2023/07/04 10:32:26;;;;;;;33.85;10.60;;;;;;;;;;6211359;28;20042;-61
2023/07/04 10:35:30;;;;;;;24.70;10.50;;;;;;;;;;6210447;28;20783;-61
2023/07/04 10:38:43;;;;;;;24.77;10.30;;;;;;;;;;6210609;28;20056;-60
2023/07/04 10:41:44;;;;;;;22.63;9.35;;;;;;;;;;6208976;28;20049;-61
2023/07/04 10:44:51;;;;;;;22.73;9.77;;;;;;;;;;6208679;28;21185;-61
2023/07/04 10:47:54;;;;;;;22.58;9.18;;;;;;;;;;6207459;28;20541;-61
2023/07/04 10:51:02;;;;;;;21.48;9.27;;;;;;;;;;6206754;28;20053;-60
2023/07/04 10:54:07;;;;;;;24.02;8.75;;;;;;;;;;6206684;28;20053;-61
2023/07/04 10:57:24;;;;;;;23.80;10.13;;;;;;;;;;6213290;28;20053;-63
2023/07/04 11:00:33;;;;;;;24.65;9.63;;;;;;;;;;6208486;28;20072;-62
2023/07/04 11:03:34;;;;;;;22.58;9.50;;;;;;;;;;6214604;28;20050;-59
2023/07/04 11:06:46;;;;;;;19.80;7.90;;;;;;;;;;6205822;28;20421;-60
2023/07/04 11:09:52;;;;;;;22.38;8.30;;;;;;;;;;6208142;28;20046;-56
2023/07/04 11:12:56;;;;;;;16.90;7.85;;;;;;;;;;6209774;28;20500;-61
2023/07/04 11:16:03;;;;;;;24.98;8.73;;;;;;;;;;6210742;28;20050;-61
2023/07/04 11:19:19;;;;;;;22.83;8.85;;;;;;;;;;6207061;28;20156;-62
2023/07/04 11:22:20;;;;;;;19.20;7.88;;;;;;;;;;6215211;28;20057;-62
2023/07/04 11:25:51;;;;;;;15.70;6.32;;;;;;;;;;6212232;28;20046;-61
2023/07/04 11:29:15;;;;;;;17.17;6.57;;;;;;;;;;6216141;28;20050;-61
2023/07/04 11:32:18;;;;;;;15.30;7.22;;;;;;;;;;6214486;28;20172;-61
2023/07/04 11:35:22;;;;;;;15.38;6.10;;;;;;;;;;6214788;28;20543;-61
2023/07/04 11:38:23;;;;;;;17.25;6.45;;;;;;;;;;6216423;28;20595;-61
2023/07/04 11:41:33;;;;;;;14.23;5.50;;;;;;;;;;6214603;28;20049;-68
2023/07/04 11:44:48;;;;;;;14.75;6.15;;;;;;;;;;6215619;28;20489;-61
2023/07/04 11:47:59;;;;;;;14.27;5.30;;;;;;;;;;6211468;28;20096;-60
2023/07/04 11:51:06;;;;;;;12.77;5.70;;;;;;;;;;6218443;28;20046;-54
2023/07/04 11:54:07;;;;;;;18.00;6.07;;;;;;;;;;6223082;28;20401;-63
2023/07/04 11:57:09;;;;;;;11.23;5.25;;;;;;;;;;6224969;28;20058;-62
2023/07/04 12:00:40;;;;;;;12.55;5.43;;;;;;;;;;6224901;28;20041;-62
2023/07/04 12:03:47;;;;;;;13.68;5.72;;;;;;;;;;6224362;28;20370;-62
2023/07/04 12:07:46;;;;;;;11.23;4.72;;;;;;;;;;6223966;28;20050;-62
2023/07/04 12:10:48;;;;;;;9.75;4.40;;;;;;;;;;6118719;29;20463;-62
2023/07/04 12:13:49;;;;;;;;;;;;;;;;;;6109008;28;20071;-62
2023/07/04 12:16:51;;;;;;;8.90;3.95;;;;;;;;;;6217027;28;20025;-62
2023/07/04 12:20:00;;;;;;;11.93;4.32;;;;;;;;;;6220073;28;20050;-63
2023/07/04 12:23:01;;;;;;;12.32;4.80;;;;;;;;;;6216447;28;20058;-65
2023/07/04 12:26:01;;;;;;;10.33;4.47;;;;;;;;;;6222473;28;20044;-62
2023/07/04 12:29:04;;;;;;;11.68;4.72;;;;;;;;;;6219228;28;20073;-60
2023/07/04 12:32:13;;;;;;;11.43;4.85;;;;;;;;;;6223696;28;20050;-61
2023/07/04 12:35:18;;;;;;;11.63;4.38;;;;;;;;;;6212237;28;20454;-60
2023/07/04 12:38:20;;;;;;;11.45;4.25;;;;;;;;;;6218707;28;20068;-61
2023/07/04 12:41:23;;;;;;;11.95;4.82;;;;;;;;;;6219408;28;20050;-63
2023/07/04 12:44:24;;;;;;;8.95;4.00;;;;;;;;;;6213502;28;20041;-63
2023/07/04 12:47:30;;;;;;;9.38;4.10;;;;;;;;;;6220987;28;20045;-61
2023/07/04 12:50:32;;;;;;;10.57;4.25;;;;;;;;;;6222444;28;20046;-63
2023/07/04 12:53:33;;;;;;;8.95;3.92;;;;;;;;;;6201745;28;20593;-60
2023/07/04 12:56:34;;;;;;;8.60;4.35;;;;;;;;;;6224589;28;20042;-61
2023/07/04 12:59:36;;;;;;;;;;;;;;;;;;6219039;28;20042;-62
2023/07/04 13:02:36;;;;;;;10.63;4.10;;;;;;;;;;6217911;28;19926;-60
2023/07/04 13:05:42;;;;;;;13.60;4.97;;;;;;;;;;6214356;28;20072;-61
2023/07/04 13:08:49;;;;;;;14.48;5.10;;;;;;;;;;6214870;28;20042;-62
2023/07/04 13:11:50;;;;;;;9.52;4.15;;;;;;;;;;6215920;28;20066;-61
2023/07/04 13:15:04;;;;;;;7.78;4.20;;;;;;;;;;6213475;28;20050;-59
2023/07/04 13:18:06;;;;;;;10.80;5.10;;;;;;;;;;6218402;28;20048;-61
2023/07/04 13:21:09;;;;;;;11.43;5.13;;;;;;;;;;6215063;28;20058;-61
2023/07/04 13:24:11;;;;;;;10.48;4.55;;;;;;;;;;6209663;28;20052;-62
2023/07/04 13:27:21;;;;;;;11.25;4.55;;;;;;;;;;6215957;28;20050;-61
2023/07/04 13:30:27;;;;;;;10.30;4.40;;;;;;;;;;6213159;28;20041;-62
2023/07/04 13:33:34;;;;;;;12.82;4.72;;;;;;;;;;6208295;28;20408;-61
2023/07/04 13:36:38;;;;;;;12.38;5.03;;;;;;;;;;6213078;28;20048;-61
2023/07/04 13:39:39;;;;;;;10.68;4.85;;;;;;;;;;6208567;28;20489;-61
2023/07/04 13:42:40;;;;;;;11.40;4.90;;;;;;;;;;6214217;28;20073;-63
2023/07/04 13:45:41;;;;;;;12.52;5.45;;;;;;;;;;6202909;28;20763;-62
2023/07/04 13:48:42;;;;;;;15.07;5.75;;;;;;;;;;6197509;28;20485;-62
2023/07/04 13:51:44;;;;;;;14.87;5.30;;;;;;;;;;6216601;28;20157;-61
2023/07/04 13:54:45;;;;;;;11.98;5.05;;;;;;;;;;6195201;28;20042;-60
2023/07/04 13:57:45;;;;;;;10.63;5.23;;;;;;;;;;6211283;28;20062;-60
2023/07/04 14:00:47;;;;;;;12.65;5.30;;;;;;;;;;6213964;28;20060;-61
2023/07/04 14:03:48;;;;;;;13.65;5.07;;;;;;;;;;6206424;28;20057;-61
2023/07/04 14:06:51;;;;;;;15.82;5.47;;;;;;;;;;6213952;28;20100;-61
2023/07/04 14:09:52;;;;;;;13.40;5.47;;;;;;;;;;6211043;28;20088;-61
2023/07/04 14:12:52;;;;;;;15.60;5.67;;;;;;;;;;6213208;28;20481;-62
2023/07/04 14:15:54;;;;;;;14.43;5.80;;;;;;;;;;6213968;28;20303;-61
2023/07/04 14:18:55;;;;;;;14.10;5.22;;;;;;;;;;6210463;28;20078;-60
2023/07/04 14:21:55;;;;;;;13.80;6.27;;;;;;;;;;6204232;28;20046;-61
2023/07/04 14:24:56;;;;;;;14.68;6.28;;;;;;;;;;6205850;28;20045;-61
2023/07/04 14:27:57;;;;;;;13.43;6.03;;;;;;;;;;6212265;28;20461;-60
2023/07/04 14:30:57;;;;;;;16.25;5.55;;;;;;;;;;6207436;28;20473;-61
2023/07/04 14:33:58;;;;;;;17.93;5.37;;;;;;;;;;6207703;28;20046;-60
2023/07/04 14:36:59;;;;;;;12.35;5.15;;;;;;;;;;6206176;28;20057;-61
2023/07/04 14:40:00;;;;;;;13.00;5.03;;;;;;;;;;6206819;28;20078;-61
2023/07/04 14:43:00;;;;;;;12.02;5.50;;;;;;;;;;6215546;28;20508;-61
2023/07/04 14:46:04;;;;;;;13.97;5.73;;;;;;;;;;6206578;28;20429;-61
2023/07/04 14:49:05;;;;;;;14.73;5.60;;;;;;;;;;6208840;28;20052;-61
2023/07/04 14:52:05;;;;;;;13.03;5.67;;;;;;;;;;6212690;28;20489;-61
2023/07/04 14:55:09;;;;;;;12.63;5.28;;;;;;;;;;6199114;28;20046;-61
2023/07/04 14:58:09;;;;;;;16.75;6.00;;;;;;;;;;6206577;28;20062;-62
2023/07/04 15:01:19;;;;;;;11.55;5.43;;;;;;;;;;6204396;28;20104;-62
2023/07/04 15:04:21;;;;;;;17.98;5.53;;;;;;;;;;6209125;28;20056;-63
2023/07/04 15:07:22;;;;;;;12.80;5.70;;;;;;;;;;6214279;28;20041;-64
2023/07/04 15:10:23;;;;;;;14.43;5.87;;;;;;;;;;6205192;28;20046;-64
2023/07/04 15:13:23;;;;;;;14.75;5.88;;;;;;;;;;6203720;28;20517;-64
2023/07/04 15:16:24;;;;;;;12.43;5.40;;;;;;;;;;6207729;28;20089;-63
2023/07/04 15:19:25;;;;;;;14.02;5.82;;;;;;;;;;6204845;28;20099;-61
2023/07/04 15:22:25;;;;;;;11.00;5.37;;;;;;;;;;6214863;28;20049;-63
2023/07/04 15:25:28;;;;;;;11.95;5.13;;;;;;;;;;6197577;28;20076;-61
2023/07/04 15:28:28;;;;;;;16.55;5.45;;;;;;;;;;6209168;28;20404;-62
2023/07/04 15:31:29;;;;;;;15.70;5.95;;;;;;;;;;6207850;28;20065;-60
2023/07/04 15:34:30;;;;;;;14.50;5.83;;;;;;;;;;6208815;28;20046;-63
2023/07/04 15:37:31;;;;;;;12.73;5.50;;;;;;;;;;6213600;28;20058;-65
2023/07/04 15:40:31;;;;;;;12.10;5.60;;;;;;;;;;6198713;28;20042;-62
2023/07/04 15:43:34;;;;;;;14.93;6.00;;;;;;;;;;6206602;28;20058;-64
2023/07/04 15:46:34;;;;;;;17.85;5.93;;;;;;;;;;6213232;28;20128;-64
2023/07/04 15:49:35;;;;;;;13.50;5.93;;;;;;;;;;6215426;28;20390;-65
2023/07/04 15:52:35;;;;;;;15.63;5.50;;;;;;;;;;6208116;28;20050;-64
2023/07/04 15:55:37;;;;;;;15.02;5.72;;;;;;;;;;6194928;28;20050;-70
2023/07/04 15:58:38;;;;;;;15.40;5.75;;;;;;;;;;6205177;28;20464;-63
2023/07/04 16:01:39;;;;;;;14.80;6.60;;;;;;;;;;6209349;28;20400;-67
2023/07/04 16:04:39;;;;;;;13.60;6.30;;;;;;;;;;6195135;28;20049;-66
2023/07/04 16:07:40;;;;;;;14.50;6.15;;;;;;;;;;6208919;28;20373;-65
2023/07/04 16:10:41;;;;;;;15.17;6.07;;;;;;;;;;6200537;28;20054;-63
2023/07/04 16:13:42;;;;;;;14.88;5.88;;;;;;;;;;6206795;28;20050;-64
2023/07/04 16:16:42;;;;;;;16.20;5.57;;;;;;;;;;6203015;28;20326;-63
2023/07/04 16:19:43;;;;;;;13.55;6.30;;;;;;;;;;6201110;28;20042;-61
2023/07/04 16:22:44;;;;;;;14.90;6.47;;;;;;;;;;6204825;28;20046;-63
2023/07/04 16:25:45;;;;;;;;;;;;;;;;;;6209468;28;20052;-63
2023/07/04 16:28:45;;;;;;;14.67;6.20;;;;;;;;;;6204253;28;19929;-66
2023/07/04 16:31:46;;;;;;;15.27;6.25;;;;;;;;;;6210902;28;20160;-63
2023/07/04 16:34:47;;;;;;;13.47;5.90;;;;;;;;;;6200835;28;20057;-62
2023/07/04 16:37:47;;;;;;;14.88;5.72;;;;;;;;;;6210358;28;20093;-60
2023/07/04 16:40:48;;;;;;;13.93;5.77;;;;;;;;;;6216592;28;20068;-64
2023/07/04 16:43:48;;;;;;;13.68;5.40;;;;;;;;;;6202344;28;20302;-66
2023/07/04 16:46:49;;;;;;;12.63;6.03;;;;;;;;;;6217634;28;20069;-65
2023/07/04 16:49:50;;;;;;;15.70;5.60;;;;;;;;;;6216175;28;20408;-65
2023/07/04 16:52:50;;;;;;;11.25;5.90;;;;;;;;;;6214475;28;20047;-64
2023/07/04 16:55:59;;;;;;;14.15;6.57;;;;;;;;;;6205193;28;20060;-63
2023/07/04 16:59:00;;;;;;;13.02;5.75;;;;;;;;;;6210984;28;20054;-65
2023/07/04 17:02:00;;;;;;;15.00;5.82;;;;;;;;;;6211726;28;20526;-64
2023/07/04 17:05:01;;;;;;;16.48;6.13;;;;;;;;;;6206765;28;20052;-62
2023/07/04 17:08:02;;;;;;;16.63;6.82;;;;;;;;;;6212889;28;20137;-65
2023/07/04 17:11:04;;;;;;;11.40;6.13;;;;;;;;;;6215729;28;20046;-64
2023/07/04 17:14:05;;;;;;;15.50;7.20;;;;;;;;;;6203946;28;20133;-65
2023/07/04 17:17:06;;;;;;;17.42;6.20;;;;;;;;;;6210537;28;20693;-64
2023/07/04 17:20:07;;;;;;;15.20;6.75;;;;;;;;;;6215973;28;20077;-61
2023/07/04 17:23:09;;;;;;;15.55;6.15;;;;;;;;;;6213990;28;20050;-64
2023/07/04 17:26:10;;;;;;;15.90;6.75;;;;;;;;;;6206499;28;20124;-63
2023/07/04 17:29:11;;;;;;;19.00;8.00;;;;;;;;;;6210453;28;20508;-64
2023/07/04 17:32:11;;;;;;;19.00;9.20;;;;;;;;;;6217136;28;20496;-65
2023/07/04 17:35:12;;;;;;;19.07;8.93;;;;;;;;;;6212707;28;20416;-62
2023/07/04 17:38:13;;;;;;;16.55;7.60;;;;;;;;;;6211666;28;20054;-64
2023/07/04 17:41:15;;;;;;;20.57;9.47;;;;;;;;;;6213648;28;20663;-64
2023/07/04 17:44:16;;;;;;;20.42;8.05;;;;;;;;;;6205772;28;20065;-63
2023/07/04 17:47:17;;;;;;;31.70;17.77;;;;;;;;;;6213424;28;20050;-63
2023/07/04 17:50:18;;;;;;;;;;;;;;;;;;6211618;28;20483;-62
2023/07/04 17:53:19;;;;;;;17.80;8.20;;;;;;;;;;6212208;28;20333;-60
2023/07/04 17:56:25;;;;;;;22.58;10.23;;;;;;;;;;6217125;28;20057;-62